sensor_id;sensor_type;location;lat;lon;timestamp;temperature;humidity
45044;DHT22;30784;48.490;9.688;2024-02-14T00:02:16;6.80;48.90
45044;DHT22;30784;48.490;9.688;2024-02-14T00:04:42;6.70;49.10
45044;DHT22;30784;48.490;9.688;2024-02-14T00:07:08;6.70;49.30
45044;DHT22;30784;48.490;9.688;2024-02-14T00:09:33;6.70;49.10
45044;DHT22;30784;48.490;9.688;2024-02-14T00:11:59;6.70;49.30
45044;DHT22;30784;48.490;9.688;2024-02-14T00:14:24;6.70;49.30
45044;DHT22;30784;48.490;9.688;2024-02-14T00:16:50;6.60;49.50
45044;DHT22;30784;48.490;9.688;2024-02-14T00:19:16;6.60;49.30
45044;DHT22;30784;48.490;9.688;2024-02-14T00:21:42;6.60;49.40
45044;DHT22;30784;48.490;9.688;2024-02-14T00:24:07;6.60;49.40
45044;DHT22;30784;48.490;9.688;2024-02-14T00:26:33;6.60;49.60
45044;DHT22;30784;48.490;9.688;2024-02-14T00:28:59;6.60;49.60
45044;DHT22;30784;48.490;9.688;2024-02-14T00:31:24;6.60;49.60
45044;DHT22;30784;48.490;9.688;2024-02-14T00:33:50;6.60;49.60
45044;DHT22;30784;48.490;9.688;2024-02-14T00:36:16;6.60;49.60
45044;DHT22;30784;48.490;9.688;2024-02-14T00:38:42;6.60;49.60
45044;DHT22;30784;48.490;9.688;2024-02-14T00:41:07;6.60;49.70
45044;DHT22;30784;48.490;9.688;2024-02-14T00:43:33;6.60;49.70
45044;DHT22;30784;48.490;9.688;2024-02-14T00:45:58;6.60;49.70
45044;DHT22;30784;48.490;9.688;2024-02-14T00:48:24;6.60;49.90
45044;DHT22;30784;48.490;9.688;2024-02-14T00:50:49;6.60;49.80
45044;DHT22;30784;48.490;9.688;2024-02-14T00:53:15;6.60;49.80
45044;DHT22;30784;48.490;9.688;2024-02-14T00:55:41;6.60;50.10
45044;DHT22;30784;48.490;9.688;2024-02-14T00:58:06;6.60;50.10
45044;DHT22;30784;48.490;9.688;2024-02-14T01:00:32;6.60;50.10
45044;DHT22;30784;48.490;9.688;2024-02-14T01:02:58;6.60;50.10
45044;DHT22;30784;48.490;9.688;2024-02-14T01:05:24;6.60;50.30
45044;DHT22;30784;48.490;9.688;2024-02-14T01:07:49;6.60;50.10
45044;DHT22;30784;48.490;9.688;2024-02-14T01:10:15;6.60;50.10
45044;DHT22;30784;48.490;9.688;2024-02-14T01:12:41;6.60;50.20
45044;DHT22;30784;48.490;9.688;2024-02-14T01:15:06;6.70;50.30
45044;DHT22;30784;48.490;9.688;2024-02-14T01:17:32;6.60;50.40
45044;DHT22;30784;48.490;9.688;2024-02-14T01:20:01;6.60;50.50
45044;DHT22;30784;48.490;9.688;2024-02-14T01:22:27;6.60;50.50
45044;DHT22;30784;48.490;9.688;2024-02-14T01:24:52;6.70;50.60
45044;DHT22;30784;48.490;9.688;2024-02-14T01:27:18;6.80;50.70
45044;DHT22;30784;48.490;9.688;2024-02-14T01:29:43;6.70;50.60
45044;DHT22;30784;48.490;9.688;2024-02-14T01:32:09;6.80;50.70
45044;DHT22;30784;48.490;9.688;2024-02-14T01:34:35;6.80;50.70
45044;DHT22;30784;48.490;9.688;2024-02-14T01:37:00;6.80;50.80
45044;DHT22;30784;48.490;9.688;2024-02-14T01:39:26;6.80;50.80
45044;DHT22;30784;48.490;9.688;2024-02-14T01:41:51;6.90;50.90
45044;DHT22;30784;48.490;9.688;2024-02-14T01:44:18;6.90;50.80
45044;DHT22;30784;48.490;9.688;2024-02-14T01:46:44;6.90;50.90
45044;DHT22;30784;48.490;9.688;2024-02-14T01:49:13;6.90;50.90
45044;DHT22;30784;48.490;9.688;2024-02-14T01:51:40;7.00;51.60
45044;DHT22;30784;48.490;9.688;2024-02-14T01:54:08;7.00;51.20
45044;DHT22;30784;48.490;9.688;2024-02-14T01:56:34;7.00;51.00
45044;DHT22;30784;48.490;9.688;2024-02-14T01:59:00;7.10;51.20
45044;DHT22;30784;48.490;9.688;2024-02-14T02:01:26;7.10;51.10
45044;DHT22;30784;48.490;9.688;2024-02-14T02:03:52;7.10;51.30
45044;DHT22;30784;48.490;9.688;2024-02-14T02:06:17;7.10;51.30
45044;DHT22;30784;48.490;9.688;2024-02-14T02:08:44;7.10;51.50
45044;DHT22;30784;48.490;9.688;2024-02-14T02:11:09;7.20;51.50
45044;DHT22;30784;48.490;9.688;2024-02-14T02:13:35;7.20;51.80
45044;DHT22;30784;48.490;9.688;2024-02-14T02:16:02;7.20;51.90
45044;DHT22;30784;48.490;9.688;2024-02-14T02:18:31;7.30;52.10
45044;DHT22;30784;48.490;9.688;2024-02-14T02:20:56;7.30;52.30
45044;DHT22;30784;48.490;9.688;2024-02-14T02:23:22;7.40;52.10
45044;DHT22;30784;48.490;9.688;2024-02-14T02:25:48;7.40;52.40
45044;DHT22;30784;48.490;9.688;2024-02-14T02:28:15;7.40;52.20
45044;DHT22;30784;48.490;9.688;2024-02-14T02:30:41;7.40;52.30
45044;DHT22;30784;48.490;9.688;2024-02-14T02:33:07;7.40;52.50
45044;DHT22;30784;48.490;9.688;2024-02-14T02:35:35;7.50;52.60
45044;DHT22;30784;48.490;9.688;2024-02-14T02:38:00;7.50;52.70
45044;DHT22;30784;48.490;9.688;2024-02-14T02:40:26;7.50;52.70
45044;DHT22;30784;48.490;9.688;2024-02-14T02:42:55;7.50;52.90
45044;DHT22;30784;48.490;9.688;2024-02-14T02:45:20;7.50;53.10
45044;DHT22;30784;48.490;9.688;2024-02-14T02:47:46;7.60;52.90
45044;DHT22;30784;48.490;9.688;2024-02-14T02:50:13;7.60;53.20
45044;DHT22;30784;48.490;9.688;2024-02-14T02:52:38;7.60;53.00
45044;DHT22;30784;48.490;9.688;2024-02-14T02:55:06;7.60;53.00
45044;DHT22;30784;48.490;9.688;2024-02-14T02:57:32;7.70;53.10
45044;DHT22;30784;48.490;9.688;2024-02-14T02:59:59;7.70;53.00
45044;DHT22;30784;48.490;9.688;2024-02-14T03:02:24;7.70;53.10
45044;DHT22;30784;48.490;9.688;2024-02-14T03:04:51;7.70;53.10
45044;DHT22;30784;48.490;9.688;2024-02-14T03:07:18;7.70;53.20
45044;DHT22;30784;48.490;9.688;2024-02-14T03:09:44;7.70;53.20
45044;DHT22;30784;48.490;9.688;2024-02-14T03:12:10;7.70;53.00
45044;DHT22;30784;48.490;9.688;2024-02-14T03:14:35;7.70;53.00
45044;DHT22;30784;48.490;9.688;2024-02-14T03:17:05;7.80;53.00
45044;DHT22;30784;48.490;9.688;2024-02-14T03:19:30;7.80;53.10
45044;DHT22;30784;48.490;9.688;2024-02-14T03:21:56;7.80;53.00
45044;DHT22;30784;48.490;9.688;2024-02-14T03:24:23;7.80;53.10
45044;DHT22;30784;48.490;9.688;2024-02-14T03:26:52;7.80;53.10
45044;DHT22;30784;48.490;9.688;2024-02-14T03:29:19;7.80;53.10
45044;DHT22;30784;48.490;9.688;2024-02-14T03:31:48;7.80;53.20
45044;DHT22;30784;48.490;9.688;2024-02-14T03:34:14;7.80;53.20
45044;DHT22;30784;48.490;9.688;2024-02-14T03:36:39;7.90;53.20
45044;DHT22;30784;48.490;9.688;2024-02-14T03:39:05;7.90;53.20
45044;DHT22;30784;48.490;9.688;2024-02-14T03:41:32;7.90;53.10
45044;DHT22;30784;48.490;9.688;2024-02-14T03:43:58;7.90;53.10
45044;DHT22;30784;48.490;9.688;2024-02-14T03:46:26;7.90;53.10
45044;DHT22;30784;48.490;9.688;2024-02-14T03:48:53;7.90;53.50
45044;DHT22;30784;48.490;9.688;2024-02-14T03:51:19;7.90;53.00
45044;DHT22;30784;48.490;9.688;2024-02-14T03:53:45;7.90;52.90
45044;DHT22;30784;48.490;9.688;2024-02-14T03:56:10;7.90;53.10
45044;DHT22;30784;48.490;9.688;2024-02-14T03:58:38;7.90;53.10
45044;DHT22;30784;48.490;9.688;2024-02-14T04:01:04;7.90;53.00
45044;DHT22;30784;48.490;9.688;2024-02-14T04:03:29;7.80;53.10
45044;DHT22;30784;48.490;9.688;2024-02-14T04:05:55;7.80;53.20
45044;DHT22;30784;48.490;9.688;2024-02-14T04:08:21;7.80;53.30
45044;DHT22;30784;48.490;9.688;2024-02-14T04:10:47;7.80;53.40
45044;DHT22;30784;48.490;9.688;2024-02-14T04:13:16;7.80;53.20
45044;DHT22;30784;48.490;9.688;2024-02-14T04:15:41;7.80;53.40
45044;DHT22;30784;48.490;9.688;2024-02-14T04:18:11;7.80;53.40
45044;DHT22;30784;48.490;9.688;2024-02-14T04:20:36;7.70;53.50
45044;DHT22;30784;48.490;9.688;2024-02-14T04:23:02;7.70;53.60
45044;DHT22;30784;48.490;9.688;2024-02-14T04:25:29;7.70;53.60
45044;DHT22;30784;48.490;9.688;2024-02-14T04:27:55;7.70;53.70
45044;DHT22;30784;48.490;9.688;2024-02-14T04:30:20;7.70;53.80
45044;DHT22;30784;48.490;9.688;2024-02-14T04:32:45;7.70;53.90
45044;DHT22;30784;48.490;9.688;2024-02-14T04:35:11;7.70;53.90
45044;DHT22;30784;48.490;9.688;2024-02-14T04:37:38;7.70;53.80
45044;DHT22;30784;48.490;9.688;2024-02-14T04:40:05;7.70;53.80
45044;DHT22;30784;48.490;9.688;2024-02-14T04:42:31;7.70;54.00
45044;DHT22;30784;48.490;9.688;2024-02-14T04:44:56;7.70;54.00
45044;DHT22;30784;48.490;9.688;2024-02-14T04:47:22;7.70;54.00
45044;DHT22;30784;48.490;9.688;2024-02-14T04:49:48;7.70;54.00
45044;DHT22;30784;48.490;9.688;2024-02-14T04:52:13;7.70;53.90
45044;DHT22;30784;48.490;9.688;2024-02-14T04:54:40;7.70;53.80
45044;DHT22;30784;48.490;9.688;2024-02-14T04:57:06;7.80;53.90
45044;DHT22;30784;48.490;9.688;2024-02-14T04:59:32;7.80;53.90
45044;DHT22;30784;48.490;9.688;2024-02-14T05:01:57;7.80;53.90
45044;DHT22;30784;48.490;9.688;2024-02-14T05:04:23;7.80;53.90
45044;DHT22;30784;48.490;9.688;2024-02-14T05:06:49;7.80;53.80
45044;DHT22;30784;48.490;9.688;2024-02-14T05:09:15;7.80;53.80
45044;DHT22;30784;48.490;9.688;2024-02-14T05:11:41;7.80;53.90
45044;DHT22;30784;48.490;9.688;2024-02-14T05:14:07;7.80;53.90
45044;DHT22;30784;48.490;9.688;2024-02-14T05:16:32;7.80;53.90
45044;DHT22;30784;48.490;9.688;2024-02-14T05:18:58;7.90;53.80
45044;DHT22;30784;48.490;9.688;2024-02-14T05:21:24;7.90;53.80
45044;DHT22;30784;48.490;9.688;2024-02-14T05:23:49;7.90;53.70
45044;DHT22;30784;48.490;9.688;2024-02-14T05:26:15;7.90;53.70
45044;DHT22;30784;48.490;9.688;2024-02-14T05:28:41;7.90;53.70
45044;DHT22;30784;48.490;9.688;2024-02-14T05:31:07;7.80;53.60
45044;DHT22;30784;48.490;9.688;2024-02-14T05:33:33;7.90;53.70
45044;DHT22;30784;48.490;9.688;2024-02-14T05:35:58;7.90;53.70
45044;DHT22;30784;48.490;9.688;2024-02-14T05:38:24;7.90;53.80
45044;DHT22;30784;48.490;9.688;2024-02-14T05:40:49;7.90;53.80
45044;DHT22;30784;48.490;9.688;2024-02-14T05:43:15;7.90;53.70
45044;DHT22;30784;48.490;9.688;2024-02-14T05:45:41;7.90;53.80
45044;DHT22;30784;48.490;9.688;2024-02-14T05:48:07;7.90;53.80
45044;DHT22;30784;48.490;9.688;2024-02-14T05:50:33;7.90;53.70
45044;DHT22;30784;48.490;9.688;2024-02-14T05:52:59;7.90;53.70
45044;DHT22;30784;48.490;9.688;2024-02-14T05:55:25;7.90;53.60
45044;DHT22;30784;48.490;9.688;2024-02-14T05:57:51;7.90;53.60
45044;DHT22;30784;48.490;9.688;2024-02-14T06:00:18;7.90;53.60
45044;DHT22;30784;48.490;9.688;2024-02-14T06:02:44;7.90;53.60
45044;DHT22;30784;48.490;9.688;2024-02-14T06:05:10;7.90;53.50
45044;DHT22;30784;48.490;9.688;2024-02-14T06:07:39;7.90;53.50
45044;DHT22;30784;48.490;9.688;2024-02-14T06:10:06;7.90;53.50
45044;DHT22;30784;48.490;9.688;2024-02-14T06:12:32;8.00;53.50
45044;DHT22;30784;48.490;9.688;2024-02-14T06:14:58;8.00;53.50
45044;DHT22;30784;48.490;9.688;2024-02-14T06:17:24;8.00;53.50
45044;DHT22;30784;48.490;9.688;2024-02-14T06:19:51;8.00;53.40
45044;DHT22;30784;48.490;9.688;2024-02-14T06:22:17;8.00;53.40
45044;DHT22;30784;48.490;9.688;2024-02-14T06:24:42;8.00;53.30
45044;DHT22;30784;48.490;9.688;2024-02-14T06:27:08;8.10;53.30
45044;DHT22;30784;48.490;9.688;2024-02-14T06:29:33;8.10;53.40
45044;DHT22;30784;48.490;9.688;2024-02-14T06:31:59;8.10;53.30
45044;DHT22;30784;48.490;9.688;2024-02-14T06:34:24;8.10;53.20
45044;DHT22;30784;48.490;9.688;2024-02-14T06:36:51;8.10;53.30
45044;DHT22;30784;48.490;9.688;2024-02-14T06:39:17;8.10;53.30
45044;DHT22;30784;48.490;9.688;2024-02-14T06:41:42;8.10;53.30
45044;DHT22;30784;48.490;9.688;2024-02-14T06:44:10;8.10;53.30
45044;DHT22;30784;48.490;9.688;2024-02-14T06:46:36;8.10;53.30
45044;DHT22;30784;48.490;9.688;2024-02-14T06:49:03;8.10;53.40
45044;DHT22;30784;48.490;9.688;2024-02-14T06:51:29;8.10;53.40
45044;DHT22;30784;48.490;9.688;2024-02-14T06:53:55;8.10;53.40
45044;DHT22;30784;48.490;9.688;2024-02-14T06:56:21;8.10;53.50
45044;DHT22;30784;48.490;9.688;2024-02-14T06:58:47;8.10;53.50
45044;DHT22;30784;48.490;9.688;2024-02-14T07:01:19;8.10;53.60
45044;DHT22;30784;48.490;9.688;2024-02-14T07:03:48;8.10;53.50
45044;DHT22;30784;48.490;9.688;2024-02-14T07:06:14;8.20;53.50
45044;DHT22;30784;48.490;9.688;2024-02-14T07:08:43;8.20;53.60
45044;DHT22;30784;48.490;9.688;2024-02-14T07:11:09;8.20;53.50
45044;DHT22;30784;48.490;9.688;2024-02-14T07:13:34;8.20;53.60
45044;DHT22;30784;48.490;9.688;2024-02-14T07:16:02;8.20;53.60
45044;DHT22;30784;48.490;9.688;2024-02-14T07:18:27;8.30;53.60
45044;DHT22;30784;48.490;9.688;2024-02-14T07:20:53;8.30;53.60
45044;DHT22;30784;48.490;9.688;2024-02-14T07:23:20;8.30;53.60
45044;DHT22;30784;48.490;9.688;2024-02-14T07:25:45;8.30;53.60
45044;DHT22;30784;48.490;9.688;2024-02-14T07:28:11;8.40;53.70
45044;DHT22;30784;48.490;9.688;2024-02-14T07:30:37;8.40;53.70
45044;DHT22;30784;48.490;9.688;2024-02-14T07:33:02;8.40;53.80
45044;DHT22;30784;48.490;9.688;2024-02-14T07:35:28;8.40;53.80
45044;DHT22;30784;48.490;9.688;2024-02-14T07:37:54;8.50;53.90
45044;DHT22;30784;48.490;9.688;2024-02-14T07:40:21;8.40;53.90
45044;DHT22;30784;48.490;9.688;2024-02-14T07:42:46;8.50;53.90
45044;DHT22;30784;48.490;9.688;2024-02-14T07:45:12;8.50;54.00
45044;DHT22;30784;48.490;9.688;2024-02-14T07:47:38;8.50;53.90
45044;DHT22;30784;48.490;9.688;2024-02-14T07:50:06;8.60;54.10
45044;DHT22;30784;48.490;9.688;2024-02-14T07:52:31;8.60;54.10
45044;DHT22;30784;48.490;9.688;2024-02-14T07:54:57;8.60;54.10
45044;DHT22;30784;48.490;9.688;2024-02-14T07:57:23;8.70;54.20
45044;DHT22;30784;48.490;9.688;2024-02-14T07:59:50;8.70;54.20
45044;DHT22;30784;48.490;9.688;2024-02-14T08:02:17;8.70;54.10
45044;DHT22;30784;48.490;9.688;2024-02-14T08:04:42;8.80;54.20
45044;DHT22;30784;48.490;9.688;2024-02-14T08:07:09;8.80;54.30
45044;DHT22;30784;48.490;9.688;2024-02-14T08:09:35;8.80;54.60
45044;DHT22;30784;48.490;9.688;2024-02-14T08:12:00;8.90;54.70
45044;DHT22;30784;48.490;9.688;2024-02-14T08:14:26;9.00;54.80
45044;DHT22;30784;48.490;9.688;2024-02-14T08:16:52;9.20;55.00
45044;DHT22;30784;48.490;9.688;2024-02-14T08:19:17;9.30;55.20
45044;DHT22;30784;48.490;9.688;2024-02-14T08:21:44;9.50;55.30
45044;DHT22;30784;48.490;9.688;2024-02-14T08:24:10;9.60;55.10
45044;DHT22;30784;48.490;9.688;2024-02-14T08:26:35;9.80;55.00
45044;DHT22;30784;48.490;9.688;2024-02-14T08:29:01;10.00;54.90
45044;DHT22;30784;48.490;9.688;2024-02-14T08:31:27;10.20;54.60
45044;DHT22;30784;48.490;9.688;2024-02-14T08:33:52;10.40;54.50
45044;DHT22;30784;48.490;9.688;2024-02-14T08:36:19;10.50;54.30
45044;DHT22;30784;48.490;9.688;2024-02-14T08:38:44;10.70;54.10
45044;DHT22;30784;48.490;9.688;2024-02-14T08:41:10;10.70;54.00
45044;DHT22;30784;48.490;9.688;2024-02-14T08:43:35;10.90;54.00
45044;DHT22;30784;48.490;9.688;2024-02-14T08:46:01;11.00;53.80
45044;DHT22;30784;48.490;9.688;2024-02-14T08:48:27;11.10;53.60
45044;DHT22;30784;48.490;9.688;2024-02-14T08:50:55;11.20;53.50
45044;DHT22;30784;48.490;9.688;2024-02-14T08:53:20;11.30;53.10
45044;DHT22;30784;48.490;9.688;2024-02-14T08:55:47;11.30;52.90
45044;DHT22;30784;48.490;9.688;2024-02-14T08:58:12;11.40;52.80
45044;DHT22;30784;48.490;9.688;2024-02-14T09:00:38;11.50;52.90
45044;DHT22;30784;48.490;9.688;2024-02-14T09:03:06;11.50;52.50
45044;DHT22;30784;48.490;9.688;2024-02-14T09:05:32;11.60;52.60
45044;DHT22;30784;48.490;9.688;2024-02-14T09:07:58;11.60;52.50
45044;DHT22;30784;48.490;9.688;2024-02-14T09:10:25;11.60;52.30
45044;DHT22;30784;48.490;9.688;2024-02-14T09:12:51;11.70;52.60
45044;DHT22;30784;48.490;9.688;2024-02-14T09:15:16;11.80;52.60
45044;DHT22;30784;48.490;9.688;2024-02-14T09:17:42;11.80;52.50
45044;DHT22;30784;48.490;9.688;2024-02-14T09:20:09;11.90;52.50
45044;DHT22;30784;48.490;9.688;2024-02-14T09:22:36;12.00;52.50
45044;DHT22;30784;48.490;9.688;2024-02-14T09:25:02;12.10;52.50
45044;DHT22;30784;48.490;9.688;2024-02-14T09:27:31;12.10;52.50
45044;DHT22;30784;48.490;9.688;2024-02-14T09:29:58;12.30;52.60
45044;DHT22;30784;48.490;9.688;2024-02-14T09:32:24;12.40;52.60
45044;DHT22;30784;48.490;9.688;2024-02-14T09:34:50;12.50;52.60
45044;DHT22;30784;48.490;9.688;2024-02-14T09:37:15;12.70;52.70
45044;DHT22;30784;48.490;9.688;2024-02-14T09:39:41;12.90;52.60
45044;DHT22;30784;48.490;9.688;2024-02-14T09:42:13;13.00;52.30
45044;DHT22;30784;48.490;9.688;2024-02-14T09:44:40;13.20;52.60
45044;DHT22;30784;48.490;9.688;2024-02-14T09:49:32;13.50;51.80
45044;DHT22;30784;48.490;9.688;2024-02-14T09:52:02;13.70;51.90
45044;DHT22;30784;48.490;9.688;2024-02-14T09:54:31;13.80;52.00
45044;DHT22;30784;48.490;9.688;2024-02-14T09:56:58;14.00;52.20
45044;DHT22;30784;48.490;9.688;2024-02-14T09:59:24;14.00;51.00
45044;DHT22;30784;48.490;9.688;2024-02-14T10:01:49;14.10;50.90
45044;DHT22;30784;48.490;9.688;2024-02-14T10:04:16;14.10;50.70
45044;DHT22;30784;48.490;9.688;2024-02-14T10:06:47;14.10;50.80
45044;DHT22;30784;48.490;9.688;2024-02-14T10:09:19;14.10;51.10
45044;DHT22;30784;48.490;9.688;2024-02-14T10:11:45;14.00;50.90
45044;DHT22;30784;48.490;9.688;2024-02-14T10:14:11;14.00;50.80
45044;DHT22;30784;48.490;9.688;2024-02-14T10:16:38;13.90;50.80
45044;DHT22;30784;48.490;9.688;2024-02-14T10:19:03;13.80;50.80
45044;DHT22;30784;48.490;9.688;2024-02-14T10:21:29;13.70;51.00
45044;DHT22;30784;48.490;9.688;2024-02-14T10:24:01;13.70;51.30
45044;DHT22;30784;48.490;9.688;2024-02-14T10:26:28;13.70;51.50
45044;DHT22;30784;48.490;9.688;2024-02-14T10:28:56;13.70;51.60
45044;DHT22;30784;48.490;9.688;2024-02-14T10:31:25;13.70;51.60
45044;DHT22;30784;48.490;9.688;2024-02-14T10:33:52;13.80;51.80
45044;DHT22;30784;48.490;9.688;2024-02-14T10:36:21;13.90;51.90
45044;DHT22;30784;48.490;9.688;2024-02-14T10:38:47;14.00;51.80
45044;DHT22;30784;48.490;9.688;2024-02-14T10:41:19;14.20;51.90
45044;DHT22;30784;48.490;9.688;2024-02-14T10:43:44;14.30;51.80
45044;DHT22;30784;48.490;9.688;2024-02-14T10:46:21;14.40;51.80
45044;DHT22;30784;48.490;9.688;2024-02-14T10:48:47;14.60;51.80
45044;DHT22;30784;48.490;9.688;2024-02-14T10:51:15;14.80;51.60
45044;DHT22;30784;48.490;9.688;2024-02-14T10:53:44;15.00;51.40
45044;DHT22;30784;48.490;9.688;2024-02-14T10:56:14;15.20;51.50
45044;DHT22;30784;48.490;9.688;2024-02-14T10:58:42;15.50;51.30
45044;DHT22;30784;48.490;9.688;2024-02-14T11:01:09;15.60;51.20
45044;DHT22;30784;48.490;9.688;2024-02-14T11:03:35;15.90;50.90
45044;DHT22;30784;48.490;9.688;2024-02-14T11:06:02;16.00;50.60
45044;DHT22;30784;48.490;9.688;2024-02-14T11:08:29;16.20;50.30
45044;DHT22;30784;48.490;9.688;2024-02-14T11:10:59;16.40;50.30
45044;DHT22;30784;48.490;9.688;2024-02-14T11:13:31;16.50;49.40
45044;DHT22;30784;48.490;9.688;2024-02-14T11:16:00;16.60;49.40
45044;DHT22;30784;48.490;9.688;2024-02-14T11:18:29;16.70;49.00
45044;DHT22;30784;48.490;9.688;2024-02-14T11:20:55;16.80;48.50
45044;DHT22;30784;48.490;9.688;2024-02-14T11:23:23;16.90;48.20
45044;DHT22;30784;48.490;9.688;2024-02-14T11:25:49;16.90;48.10
45044;DHT22;30784;48.490;9.688;2024-02-14T11:28:19;16.90;48.00
45044;DHT22;30784;48.490;9.688;2024-02-14T11:30:45;16.90;47.90
45044;DHT22;30784;48.490;9.688;2024-02-14T11:33:21;17.00;48.70
45044;DHT22;30784;48.490;9.688;2024-02-14T11:35:48;17.00;47.50
45044;DHT22;30784;48.490;9.688;2024-02-14T11:38:17;17.00;47.60
45044;DHT22;30784;48.490;9.688;2024-02-14T11:40:43;17.00;47.70
45044;DHT22;30784;48.490;9.688;2024-02-14T11:43:13;17.00;47.30
45044;DHT22;30784;48.490;9.688;2024-02-14T11:45:40;17.00;47.20
45044;DHT22;30784;48.490;9.688;2024-02-14T11:48:11;16.90;47.70
45044;DHT22;30784;48.490;9.688;2024-02-14T11:50:39;16.90;46.90
45044;DHT22;30784;48.490;9.688;2024-02-14T11:53:05;16.80;46.80
45044;DHT22;30784;48.490;9.688;2024-02-14T11:55:34;16.70;46.90
45044;DHT22;30784;48.490;9.688;2024-02-14T11:58:02;16.60;47.00
45044;DHT22;30784;48.490;9.688;2024-02-14T12:00:27;16.40;47.20
45044;DHT22;30784;48.490;9.688;2024-02-14T12:02:53;16.40;47.40
45044;DHT22;30784;48.490;9.688;2024-02-14T12:05:19;16.30;47.50
45044;DHT22;30784;48.490;9.688;2024-02-14T12:07:45;16.30;47.60
45044;DHT22;30784;48.490;9.688;2024-02-14T12:10:10;16.20;47.70
45044;DHT22;30784;48.490;9.688;2024-02-14T12:12:38;16.20;47.70
45044;DHT22;30784;48.490;9.688;2024-02-14T12:15:03;16.10;47.70
45044;DHT22;30784;48.490;9.688;2024-02-14T12:17:32;16.00;47.70
45044;DHT22;30784;48.490;9.688;2024-02-14T12:20:08;16.00;47.80
45044;DHT22;30784;48.490;9.688;2024-02-14T12:22:36;15.90;47.90
45044;DHT22;30784;48.490;9.688;2024-02-14T12:25:02;15.80;48.00
45044;DHT22;30784;48.490;9.688;2024-02-14T12:27:32;15.70;48.20
45044;DHT22;30784;48.490;9.688;2024-02-14T12:29:58;15.60;48.20
45044;DHT22;30784;48.490;9.688;2024-02-14T12:32:23;15.60;48.50
45044;DHT22;30784;48.490;9.688;2024-02-14T12:34:49;15.50;49.10
45044;DHT22;30784;48.490;9.688;2024-02-14T12:37:14;15.40;48.70
45044;DHT22;30784;48.490;9.688;2024-02-14T12:39:40;15.40;48.90
45044;DHT22;30784;48.490;9.688;2024-02-14T12:42:06;15.30;49.00
45044;DHT22;30784;48.490;9.688;2024-02-14T12:44:31;15.20;49.10
45044;DHT22;30784;48.490;9.688;2024-02-14T12:46:57;15.20;49.30
45044;DHT22;30784;48.490;9.688;2024-02-14T12:49:23;15.10;49.30
45044;DHT22;30784;48.490;9.688;2024-02-14T12:51:51;15.10;49.40
45044;DHT22;30784;48.490;9.688;2024-02-14T12:54:17;15.10;49.60
45044;DHT22;30784;48.490;9.688;2024-02-14T12:56:43;15.00;49.70
45044;DHT22;30784;48.490;9.688;2024-02-14T12:59:08;15.00;49.70
45044;DHT22;30784;48.490;9.688;2024-02-14T13:01:40;15.00;49.90
45044;DHT22;30784;48.490;9.688;2024-02-14T13:04:06;14.90;50.10
45044;DHT22;30784;48.490;9.688;2024-02-14T13:06:33;14.90;50.10
45044;DHT22;30784;48.490;9.688;2024-02-14T13:08:59;14.90;50.30
45044;DHT22;30784;48.490;9.688;2024-02-14T13:11:25;14.90;50.30
45044;DHT22;30784;48.490;9.688;2024-02-14T13:13:51;14.80;50.50
45044;DHT22;30784;48.490;9.688;2024-02-14T13:16:16;14.80;50.50
45044;DHT22;30784;48.490;9.688;2024-02-14T13:18:42;14.80;50.60
45044;DHT22;30784;48.490;9.688;2024-02-14T13:21:07;14.80;50.80
45044;DHT22;30784;48.490;9.688;2024-02-14T13:23:33;14.80;51.00
45044;DHT22;30784;48.490;9.688;2024-02-14T13:25:58;14.70;51.10
45044;DHT22;30784;48.490;9.688;2024-02-14T13:28:24;14.70;51.10
45044;DHT22;30784;48.490;9.688;2024-02-14T13:30:50;14.70;51.20
45044;DHT22;30784;48.490;9.688;2024-02-14T13:33:16;14.70;51.30
45044;DHT22;30784;48.490;9.688;2024-02-14T13:35:41;14.80;51.50
45044;DHT22;30784;48.490;9.688;2024-02-14T13:38:07;14.80;51.50
45044;DHT22;30784;48.490;9.688;2024-02-14T13:40:34;14.80;51.50
45044;DHT22;30784;48.490;9.688;2024-02-14T13:43:00;14.90;51.50
45044;DHT22;30784;48.490;9.688;2024-02-14T13:45:26;14.90;51.50
45044;DHT22;30784;48.490;9.688;2024-02-14T13:48:02;14.90;51.50
45044;DHT22;30784;48.490;9.688;2024-02-14T13:50:29;15.00;51.40
45044;DHT22;30784;48.490;9.688;2024-02-14T13:52:57;15.10;51.60
45044;DHT22;30784;48.490;9.688;2024-02-14T13:55:22;15.10;51.50
45044;DHT22;30784;48.490;9.688;2024-02-14T13:57:48;15.20;51.70
45044;DHT22;30784;48.490;9.688;2024-02-14T14:00:14;15.30;51.50
45044;DHT22;30784;48.490;9.688;2024-02-14T14:02:39;15.30;51.30
45044;DHT22;30784;48.490;9.688;2024-02-14T14:05:11;15.40;51.10
45044;DHT22;30784;48.490;9.688;2024-02-14T14:07:41;15.50;51.10
45044;DHT22;30784;48.490;9.688;2024-02-14T14:10:10;15.60;51.10
45044;DHT22;30784;48.490;9.688;2024-02-14T14:12:36;15.70;51.00
45044;DHT22;30784;48.490;9.688;2024-02-14T14:15:02;15.80;51.00
45044;DHT22;30784;48.490;9.688;2024-02-14T14:17:28;15.90;50.90
45044;DHT22;30784;48.490;9.688;2024-02-14T14:19:54;15.90;50.70
45044;DHT22;30784;48.490;9.688;2024-02-14T14:22:20;16.00;50.60
45044;DHT22;30784;48.490;9.688;2024-02-14T14:24:46;16.10;50.40
45044;DHT22;30784;48.490;9.688;2024-02-14T14:27:12;16.20;50.60
45044;DHT22;30784;48.490;9.688;2024-02-14T14:29:40;16.30;50.40
45044;DHT22;30784;48.490;9.688;2024-02-14T14:32:09;16.30;50.20
45044;DHT22;30784;48.490;9.688;2024-02-14T14:34:35;16.40;50.10
45044;DHT22;30784;48.490;9.688;2024-02-14T14:37:01;16.50;50.00
45044;DHT22;30784;48.490;9.688;2024-02-14T14:39:27;16.60;49.90
45044;DHT22;30784;48.490;9.688;2024-02-14T14:41:53;16.60;49.70
45044;DHT22;30784;48.490;9.688;2024-02-14T14:44:24;16.70;49.50
45044;DHT22;30784;48.490;9.688;2024-02-14T14:46:50;16.70;49.40
45044;DHT22;30784;48.490;9.688;2024-02-14T14:49:16;16.70;49.40
45044;DHT22;30784;48.490;9.688;2024-02-14T14:51:42;16.70;49.20
45044;DHT22;30784;48.490;9.688;2024-02-14T14:54:08;16.70;49.20
45044;DHT22;30784;48.490;9.688;2024-02-14T14:56:33;16.70;49.20
45044;DHT22;30784;48.490;9.688;2024-02-14T14:58:59;16.60;49.10
45044;DHT22;30784;48.490;9.688;2024-02-14T15:01:29;16.60;49.00
45044;DHT22;30784;48.490;9.688;2024-02-14T15:03:54;16.50;49.00
45044;DHT22;30784;48.490;9.688;2024-02-14T15:06:20;16.50;49.10
45044;DHT22;30784;48.490;9.688;2024-02-14T15:08:46;16.40;49.10
45044;DHT22;30784;48.490;9.688;2024-02-14T15:11:13;16.40;49.20
45044;DHT22;30784;48.490;9.688;2024-02-14T15:13:43;16.30;49.30
45044;DHT22;30784;48.490;9.688;2024-02-14T15:16:10;16.30;49.40
45044;DHT22;30784;48.490;9.688;2024-02-14T15:18:35;16.30;49.30
45044;DHT22;30784;48.490;9.688;2024-02-14T15:21:01;16.20;49.40
45044;DHT22;30784;48.490;9.688;2024-02-14T15:23:28;16.10;49.40
45044;DHT22;30784;48.490;9.688;2024-02-14T15:25:54;16.10;49.50
45044;DHT22;30784;48.490;9.688;2024-02-14T15:28:28;16.00;49.50
45044;DHT22;30784;48.490;9.688;2024-02-14T15:30:55;15.90;49.50
45044;DHT22;30784;48.490;9.688;2024-02-14T15:33:40;15.90;49.70
45044;DHT22;30784;48.490;9.688;2024-02-14T15:36:06;15.80;49.80
45044;DHT22;30784;48.490;9.688;2024-02-14T15:38:31;15.70;49.90